Time;durP1;ratioP1;P1;durP2;ratioP2;P2;SDS_P1;SDS_P2;PMS_P1;PMS_P2;Temp;Humidity;BMP_temperature;BMP_pressure;BME280_temperature;BME280_humidity;BME280_pressure;Samples;Min_cycle;Max_cycle;Signal;HPM_P1;HPM_P2
2021/06/20 00:01:44;;;;;;;2.65;1.48;;;17.10;96.60;;;;;;5087664;28;20202;-71
2021/06/20 00:04:10;;;;;;;1.75;1.67;;;17.10;97.00;;;;;;5089789;28;20568;-72
2021/06/20 00:06:38;;;;;;;1.20;1.20;;;17.10;97.30;;;;;;5089617;28;20193;-71
2021/06/20 00:09:09;;;;;;;1.10;1.10;;;17.00;97.20;;;;;;5089918;28;20544;-71
2021/06/20 00:11:37;;;;;;;1.30;1.30;;;17.00;97.20;;;;;;5088956;28;20190;-71
2021/06/20 00:14:04;;;;;;;1.30;1.30;;;16.90;97.30;;;;;;5088064;28;20226;-71
2021/06/20 00:16:31;;;;;;;1.30;1.30;;;16.90;97.40;;;;;;5089758;28;20186;-71
2021/06/20 00:18:57;;;;;;;3.63;1.13;;;16.90;97.70;;;;;;5089652;28;20679;-72
2021/06/20 00:21:24;;;;;;;0.98;0.98;;;16.90;97.70;;;;;;5088901;28;20182;-71
2021/06/20 00:23:50;;;;;;;0.93;0.93;;;16.90;97.60;;;;;;5089837;28;20209;-72
2021/06/20 00:26:16;;;;;;;2.00;0.95;;;16.80;97.60;;;;;;5087452;28;20262;-72
2021/06/20 00:28:42;;;;;;;0.80;0.80;;;16.80;97.60;;;;;;5089831;28;20182;-72
2021/06/20 00:31:08;;;;;;;0.80;0.80;;;16.80;97.50;;;;;;5088747;28;20255;-72
2021/06/20 00:33:34;;;;;;;0.65;0.65;;;16.80;97.30;;;;;;5089583;28;20550;-71
2021/06/20 00:36:00;;;;;;;1.23;0.82;;;16.80;97.20;;;;;;5085786;28;20183;-72
2021/06/20 00:38:26;;;;;;;0.88;0.88;;;16.80;97.10;;;;;;5088449;28;20218;-71
2021/06/20 00:40:52;;;;;;;0.85;0.80;;;16.70;97.10;;;;;;5088659;28;20302;-72
2021/06/20 00:43:18;;;;;;;0.60;0.60;;;16.70;97.20;;;;;;5087229;28;20255;-73
2021/06/20 00:45:44;;;;;;;3.05;0.90;;;16.70;97.20;;;;;;5089375;28;20182;-71
2021/06/20 00:48:10;;;;;;;0.88;0.88;;;16.70;97.20;;;;;;5087583;28;20239;-71
2021/06/20 00:50:37;;;;;;;1.95;0.88;;;16.70;97.30;;;;;;5087912;28;20217;-71
2021/06/20 00:53:04;;;;;;;1.95;0.93;;;16.70;97.20;;;;;;5087575;28;20182;-71
2021/06/20 00:55:33;;;;;;;0.65;0.65;;;16.70;97.10;;;;;;5088424;28;20181;-71
2021/06/20 00:58:00;;;;;;;4.25;1.10;;;16.60;97.20;;;;;;5087707;28;20616;-72
2021/06/20 01:00:27;;;;;;;1.15;0.90;;;16.60;97.20;;;;;;5087266;28;20179;-72
2021/06/20 01:02:52;;;;;;;1.10;1.10;;;16.60;97.30;;;;;;5088667;28;20171;-71
2021/06/20 01:05:20;;;;;;;1.10;1.02;;;16.60;98.00;;;;;;5088175;28;20757;-71
2021/06/20 01:07:53;;;;;;;0.70;0.70;;;16.50;98.30;;;;;;5088808;28;20182;-71
2021/06/20 01:10:20;;;;;;;0.75;0.75;;;16.40;98.20;;;;;;5085136;28;20266;-71
2021/06/20 01:12:48;;;;;;;0.80;0.77;;;16.40;98.40;;;;;;5087518;28;20174;-71
2021/06/20 01:15:14;;;;;;;0.70;0.70;;;16.30;98.50;;;;;;5088949;28;20953;-71
2021/06/20 01:17:41;;;;;;;1.85;0.70;;;16.30;98.10;;;;;;5088606;28;20217;-71
2021/06/20 01:20:12;;;;;;;1.63;0.95;;;16.20;98.00;;;;;;5101589;28;20189;-71
2021/06/20 01:22:39;;;;;;;0.50;0.50;;;16.20;98.10;;;;;;5090692;28;20182;-71
2021/06/20 01:25:08;;;;;;;2.58;0.90;;;16.10;98.50;;;;;;5086783;28;20235;-71
2021/06/20 01:27:44;;;;;;;0.50;0.50;;;16.10;98.40;;;;;;5083401;28;20742;-71
2021/06/20 01:30:17;;;;;;;0.55;0.55;;;16.10;98.10;;;;;;5087054;28;20185;-71
2021/06/20 01:32:43;;;;;;;0.70;0.70;;;16.10;98.30;;;;;;5084850;28;20647;-71
2021/06/20 01:35:11;;;;;;;0.85;0.85;;;16.10;98.40;;;;;;5086796;28;20243;-71
2021/06/20 01:37:38;;;;;;;0.68;0.68;;;16.10;98.40;;;;;;5087936;28;20297;-71
2021/06/20 01:40:09;;;;;;;1.00;1.00;;;16.20;98.40;;;;;;5088363;28;20252;-73
2021/06/20 01:42:35;;;;;;;0.90;0.80;;;16.20;98.30;;;;;;5087423;28;20178;-73
2021/06/20 01:45:01;;;;;;;0.60;0.60;;;16.20;98.50;;;;;;5086486;28;20251;-71
2021/06/20 01:47:28;;;;;;;0.70;0.70;;;16.20;98.50;;;;;;5088323;28;20188;-72
2021/06/20 01:49:58;;;;;;;0.80;0.80;;;16.20;98.30;;;;;;5087713;28;20727;-72
2021/06/20 01:52:25;;;;;;;0.82;0.82;;;16.20;98.00;;;;;;5087455;28;20197;-72
2021/06/20 01:54:53;;;;;;;0.80;0.80;;;16.20;98.00;;;;;;5087399;28;20899;-72
2021/06/20 01:57:28;;;;;;;4.53;0.70;;;16.20;97.90;;;;;;5082878;28;20206;-72
2021/06/20 01:59:56;;;;;;;1.00;1.00;;;16.10;97.80;;;;;;5088121;28;20181;-73
2021/06/20 02:02:24;;;;;;;1.15;0.70;;;16.10;98.40;;;;;;5085436;28;20189;-72
2021/06/20 02:04:51;;;;;;;1.20;1.00;;;16.00;98.50;;;;;;5080802;28;20175;-72
2021/06/20 02:07:16;;;;;;;3.45;0.95;;;16.00;98.50;;;;;;5084854;28;20197;-72
2021/06/20 02:09:43;;;;;;;1.27;1.17;;;16.00;98.50;;;;;;5087290;28;20185;-72
2021/06/20 02:12:10;;;;;;;0.85;0.85;;;16.00;98.50;;;;;;5085523;28;20181;-72
2021/06/20 02:14:38;;;;;;;1.02;0.90;;;16.00;98.50;;;;;;5086736;28;20847;-72
2021/06/20 02:17:24;;;;;;;0.82;0.82;;;16.00;98.50;;;;;;5086184;28;20651;-72
2021/06/20 02:19:56;;;;;;;0.77;0.77;;;16.00;98.50;;;;;;5080274;28;20198;-72
2021/06/20 02:22:23;;;;;;;1.20;0.90;;;16.00;98.50;;;;;;5083012;28;20190;-72
2021/06/20 02:24:49;;;;;;;3.53;0.90;;;15.90;98.50;;;;;;5079472;28;20182;-72
2021/06/20 02:27:15;;;;;;;1.00;1.00;;;15.90;98.50;;;;;;5084715;28;20762;-72
2021/06/20 02:29:42;;;;;;;1.10;1.10;;;15.90;98.50;;;;;;5078345;28;20757;-72
2021/06/20 02:32:10;;;;;;;1.02;1.02;;;15.90;98.50;;;;;;5084378;28;20189;-72
2021/06/20 02:34:37;;;;;;;1.17;1.15;;;15.90;98.50;;;;;;5080789;28;20332;-72
2021/06/20 02:37:05;;;;;;;0.95;0.95;;;15.90;98.50;;;;;;5083271;28;20274;-73
2021/06/20 02:39:31;;;;;;;1.55;1.45;;;15.80;98.50;;;;;;5087159;28;20178;-72
2021/06/20 02:41:57;;;;;;;2.75;1.13;;;15.80;98.50;;;;;;5080847;28;20189;-72
2021/06/20 02:44:23;;;;;;;1.17;1.17;;;15.80;98.50;;;;;;5086630;28;20859;-72
2021/06/20 02:46:48;;;;;;;1.20;1.20;;;15.80;98.50;;;;;;5082187;28;20244;-72
2021/06/20 02:49:14;;;;;;;1.27;1.27;;;15.80;98.50;;;;;;5085704;28;20205;-72
2021/06/20 02:51:43;;;;;;;1.75;1.23;;;15.80;98.50;;;;;;5086684;28;20867;-73
2021/06/20 02:54:10;;;;;;;1.02;1.02;;;15.80;98.50;;;;;;5077268;28;20192;-73
2021/06/20 02:56:35;;;;;;;1.25;1.25;;;15.80;98.50;;;;;;5085565;28;21026;-73
2021/06/20 02:59:01;;;;;;;1.20;1.20;;;15.80;98.50;;;;;;5089415;28;20209;-72
2021/06/20 03:01:27;;;;;;;1.42;1.42;;;15.80;98.50;;;;;;5089716;28;20224;-73
2021/06/20 03:03:52;;;;;;;1.30;1.30;;;15.80;98.50;;;;;;5085972;28;20291;-72
2021/06/20 03:06:18;;;;;;;1.17;1.17;;;15.70;98.50;;;;;;5084687;28;20572;-72
2021/06/20 03:08:44;;;;;;;1.13;1.13;;;15.70;98.50;;;;;;5085885;28;20185;-72
2021/06/20 03:11:09;;;;;;;1.17;1.17;;;15.70;98.50;;;;;;5079342;28;20183;-72
2021/06/20 03:13:35;;;;;;;2.85;1.33;;;15.60;98.50;;;;;;5085785;28;20577;-72
2021/06/20 03:16:01;;;;;;;1.00;1.00;;;15.70;98.50;;;;;;5085055;28;20186;-72
2021/06/20 03:18:26;;;;;;;1.20;1.20;;;15.70;98.50;;;;;;5085490;28;20289;-72
2021/06/20 03:20:52;;;;;;;3.42;1.33;;;15.70;98.50;;;;;;5086643;28;20189;-72
2021/06/20 03:23:18;;;;;;;0.98;0.98;;;15.70;98.50;;;;;;5086865;28;20269;-72
2021/06/20 03:25:44;;;;;;;1.23;1.23;;;15.70;98.50;;;;;;5081757;28;20187;-73
2021/06/20 03:28:10;;;;;;;2.75;1.00;;;15.70;98.50;;;;;;5089087;28;20213;-72
2021/06/20 03:30:36;;;;;;;1.20;1.20;;;15.70;98.50;;;;;;5089796;28;20267;-72
2021/06/20 03:33:02;;;;;;;0.95;0.95;;;15.70;98.50;;;;;;5090875;28;20190;-72
2021/06/20 03:35:28;;;;;;;1.73;0.88;;;15.70;98.50;;;;;;5089664;28;20201;-72
2021/06/20 03:37:54;;;;;;;1.23;1.23;;;15.80;98.50;;;;;;5089798;28;20248;-72
2021/06/20 03:40:20;;;;;;;1.40;1.40;;;15.80;98.50;;;;;;5088185;28;20201;-72
2021/06/20 03:42:46;;;;;;;1.33;1.23;;;15.80;98.50;;;;;;5089557;28;20601;-73
2021/06/20 03:45:12;;;;;;;1.23;1.23;;;15.80;98.50;;;;;;5090465;28;20186;-72
2021/06/20 03:47:38;;;;;;;1.30;1.30;;;15.90;98.50;;;;;;5086587;28;20194;-71
2021/06/20 03:50:09;;;;;;;1.50;1.50;;;15.90;98.50;;;;;;5088244;28;20181;-72
2021/06/20 03:52:35;;;;;;;1.80;1.80;;;15.90;98.50;;;;;;5089971;28;20267;-72
2021/06/20 03:55:02;;;;;;;1.13;1.13;;;16.00;98.50;;;;;;5088987;28;20178;-72
2021/06/20 03:57:27;;;;;;;0.98;0.98;;;16.00;98.50;;;;;;5088418;28;20331;-71
2021/06/20 03:59:53;;;;;;;1.42;1.02;;;16.00;98.50;;;;;;5089093;28;20190;-72
2021/06/20 04:02:19;;;;;;;1.08;1.08;;;16.00;98.50;;;;;;5086601;28;20574;-72
2021/06/20 04:04:45;;;;;;;1.20;1.20;;;16.00;98.50;;;;;;5088680;28;20734;-72
2021/06/20 04:07:12;;;;;;;4.43;1.10;;;16.00;98.50;;;;;;5088853;28;20280;-72
2021/06/20 04:09:42;;;;;;;2.05;1.20;;;16.10;98.50;;;;;;5095523;28;20273;-71
2021/06/20 04:12:11;;;;;;;1.23;1.20;;;16.10;98.50;;;;;;5087267;28;20186;-72
2021/06/20 04:14:37;;;;;;;1.45;1.45;;;16.20;98.50;;;;;;5084125;28;20588;-71
2021/06/20 04:17:03;;;;;;;1.17;1.17;;;16.20;98.50;;;;;;5083155;28;20192;-72
2021/06/20 04:19:29;;;;;;;0.73;0.70;;;16.20;98.50;;;;;;5086811;28;20186;-72
2021/06/20 04:21:55;;;;;;;1.30;1.20;;;16.30;98.50;;;;;;5088263;28;20178;-72
2021/06/20 04:24:21;;;;;;;1.33;1.33;;;16.30;98.50;;;;;;5087574;28;20189;-72
2021/06/20 04:26:47;;;;;;;1.63;1.58;;;16.40;98.50;;;;;;5089435;28;20807;-72
2021/06/20 04:29:12;;;;;;;3.15;1.60;;;16.40;98.50;;;;;;5089101;28;20244;-72
2021/06/20 04:31:38;;;;;;;1.73;1.70;;;16.50;98.50;;;;;;5093948;28;20232;-72
2021/06/20 04:34:04;;;;;;;2.00;2.00;;;16.50;98.50;;;;;;5089072;28;20182;-72
2021/06/20 04:36:30;;;;;;;2.15;1.75;;;16.60;98.50;;;;;;5094481;28;20238;-72
2021/06/20 04:38:56;;;;;;;6.55;2.47;;;16.60;98.50;;;;;;5086262;28;20217;-72
2021/06/20 04:41:23;;;;;;;4.82;3.05;;;16.70;98.50;;;;;;5087891;28;20183;-72
2021/06/20 04:46:22;;;;;;;3.40;3.20;;;16.80;98.50;;;;;;5088544;28;20273;-72
2021/06/20 04:48:53;;;;;;;2.72;2.63;;;16.80;98.50;;;;;;5087803;28;20201;-72
2021/06/20 04:51:19;;;;;;;3.13;2.85;;;16.80;98.50;;;;;;5089559;28;20191;-72
2021/06/20 04:53:45;;;;;;;3.13;3.00;;;16.90;98.50;;;;;;5086522;28;20232;-73
2021/06/20 04:56:11;;;;;;;2.35;2.28;;;16.90;98.50;;;;;;5085293;28;20193;-72
2021/06/20 04:58:37;;;;;;;2.90;2.65;;;16.90;98.50;;;;;;5087896;28;20763;-73
2021/06/20 05:01:03;;;;;;;2.78;2.47;;;17.00;98.50;;;;;;5086552;28;20627;-72
2021/06/20 05:03:28;;;;;;;1.92;1.92;;;17.00;98.50;;;;;;5087306;28;20243;-72
2021/06/20 05:05:54;;;;;;;5.20;2.38;;;17.10;98.50;;;;;;5088696;28;20218;-70
2021/06/20 05:08:20;;;;;;;2.35;2.25;;;17.10;98.50;;;;;;5080705;28;21147;-71
2021/06/20 05:10:46;;;;;;;2.47;2.28;;;17.20;98.50;;;;;;5086571;28;20186;-71
2021/06/20 05:13:11;;;;;;;1.90;1.70;;;17.20;98.50;;;;;;5084023;28;20218;-71
2021/06/20 05:15:37;;;;;;;2.08;1.98;;;17.20;98.50;;;;;;5088689;28;20255;-71
2021/06/20 05:18:03;;;;;;;2.38;2.15;;;17.30;98.50;;;;;;5087837;28;20205;-71
2021/06/20 05:20:29;;;;;;;2.25;1.90;;;17.30;98.50;;;;;;5088232;28;20196;-72
2021/06/20 05:22:55;;;;;;;2.22;2.08;;;17.40;98.50;;;;;;5087982;28;20174;-71
2021/06/20 05:25:20;;;;;;;2.15;2.05;;;17.40;98.40;;;;;;5086127;28;20279;-72
2021/06/20 05:27:46;;;;;;;1.83;1.83;;;17.50;98.40;;;;;;5088030;28;20216;-72
2021/06/20 05:30:13;;;;;;;1.85;1.75;;;17.50;98.30;;;;;;5087692;28;20186;-72
2021/06/20 05:32:39;;;;;;;1.83;1.83;;;17.50;97.90;;;;;;5077336;28;20182;-71
2021/06/20 05:35:06;;;;;;;2.38;2.17;;;17.60;98.00;;;;;;5090022;28;20243;-71
2021/06/20 05:37:31;;;;;;;1.45;1.45;;;17.70;97.90;;;;;;5086042;28;20213;-71
2021/06/20 05:39:59;;;;;;;1.70;1.70;;;17.70;97.70;;;;;;5087807;28;20728;-71
2021/06/20 05:42:25;;;;;;;1.33;1.33;;;17.70;97.60;;;;;;5082408;28;20187;-72
2021/06/20 05:44:50;;;;;;;1.20;1.20;;;17.80;97.80;;;;;;5084411;28;20610;-72
2021/06/20 05:47:16;;;;;;;1.27;1.27;;;17.80;97.50;;;;;;5088113;28;20179;-72
2021/06/20 05:49:42;;;;;;;0.90;0.90;;;17.90;97.10;;;;;;5086865;28;20189;-72
2021/06/20 05:52:07;;;;;;;2.70;1.40;;;17.90;97.10;;;;;;5088394;28;20203;-72
2021/06/20 05:54:33;;;;;;;1.42;1.42;;;18.00;96.80;;;;;;5088105;28;20174;-73
2021/06/20 05:56:59;;;;;;;1.00;1.00;;;18.10;96.80;;;;;;5079897;28;20272;-72
2021/06/20 05:59:24;;;;;;;1.10;1.10;;;18.20;96.80;;;;;;5086538;28;20565;-72
2021/06/20 06:01:50;;;;;;;1.30;1.30;;;18.30;96.70;;;;;;5086233;28;20647;-72
2021/06/20 06:04:16;;;;;;;1.17;1.08;;;18.50;96.30;;;;;;5084833;28;20185;-74
2021/06/20 06:06:41;;;;;;;1.13;1.13;;;18.60;96.10;;;;;;5086521;28;20192;-73
2021/06/20 06:09:07;;;;;;;1.50;1.40;;;18.70;95.90;;;;;;5084034;28;20190;-70
2021/06/20 06:11:33;;;;;;;1.73;1.20;;;18.90;95.70;;;;;;5082783;28;20175;-72
2021/06/20 06:13:58;;;;;;;2.30;1.33;;;19.00;95.20;;;;;;5083636;28;20189;-72
2021/06/20 06:16:24;;;;;;;1.52;1.52;;;19.10;95.00;;;;;;5082210;28;20232;-72
2021/06/20 06:18:50;;;;;;;2.72;1.23;;;19.10;94.10;;;;;;5087244;28;20220;-73
2021/06/20 06:21:16;;;;;;;1.17;1.17;;;19.20;94.00;;;;;;5087890;28;20217;-74
2021/06/20 06:23:41;;;;;;;2.15;1.23;;;19.20;94.00;;;;;;5091541;28;20679;-74
2021/06/20 06:26:07;;;;;;;1.45;1.45;;;19.20;93.70;;;;;;5094957;28;20201;-74
2021/06/20 06:28:33;;;;;;;1.25;1.25;;;19.20;93.60;;;;;;5097280;28;20190;-73
2021/06/20 06:30:59;;;;;;;1.45;1.45;;;19.10;93.30;;;;;;5091573;28;20190;-72
2021/06/20 06:33:25;;;;;;;1.73;1.40;;;19.10;93.60;;;;;;5083025;28;20584;-73
2021/06/20 06:35:50;;;;;;;1.50;1.50;;;19.10;93.30;;;;;;5084301;28;20265;-71
2021/06/20 06:38:16;;;;;;;3.10;1.40;;;19.10;93.20;;;;;;5083869;28;20314;-71
2021/06/20 06:40:43;;;;;;;1.23;1.23;;;19.00;93.10;;;;;;5082490;28;20210;-71
2021/06/20 06:43:09;;;;;;;2.50;1.25;;;19.00;93.60;;;;;;5084509;28;20297;-72
2021/06/20 06:45:34;;;;;;;1.67;1.40;;;19.10;93.60;;;;;;5086259;28;20315;-70
2021/06/20 06:48:00;;;;;;;1.17;1.08;;;19.10;93.10;;;;;;5081528;28;20182;-73
2021/06/20 06:50:26;;;;;;;1.60;1.50;;;19.10;93.20;;;;;;5086768;28;20293;-73
2021/06/20 06:52:54;;;;;;;1.40;1.30;;;19.10;93.10;;;;;;5087563;28;20580;-73
2021/06/20 06:55:19;;;;;;;1.10;1.00;;;19.20;93.10;;;;;;5084777;28;20210;-72
2021/06/20 06:57:45;;;;;;;1.63;1.48;;;19.20;93.40;;;;;;5089648;28;20302;-74
2021/06/20 07:00:12;;;;;;;1.20;1.20;;;19.30;93.20;;;;;;5083715;28;20182;-73
2021/06/20 07:02:38;;;;;;;1.30;1.30;;;19.30;93.50;;;;;;5088676;28;20182;-75
2021/06/20 07:05:04;;;;;;;1.42;1.33;;;19.40;93.20;;;;;;5095579;28;20189;-77
2021/06/20 07:07:30;;;;;;;1.60;1.58;;;19.50;92.80;;;;;;5094530;28;20190;-77
2021/06/20 07:09:59;;;;;;;1.63;1.60;;;19.60;92.80;;;;;;5091269;28;20185;-78
2021/06/20 07:12:27;;;;;;;1.48;1.48;;;19.70;92.50;;;;;;5085161;28;20589;-75
2021/06/20 07:14:52;;;;;;;1.40;1.30;;;19.70;92.00;;;;;;5083954;28;20643;-76
2021/06/20 07:17:18;;;;;;;1.25;1.25;;;19.80;91.70;;;;;;5088836;28;20185;-73
2021/06/20 07:19:43;;;;;;;1.58;1.48;;;19.80;91.80;;;;;;5093088;28;20677;-75
2021/06/20 07:22:09;;;;;;;1.10;1.10;;;19.90;91.30;;;;;;5100324;28;20248;-75
2021/06/20 07:24:35;;;;;;;8.98;1.25;;;19.90;91.10;;;;;;5103104;28;20174;-75
2021/06/20 07:27:01;;;;;;;1.10;1.10;;;19.90;90.90;;;;;;5099492;28;20174;-75
2021/06/20 07:29:26;;;;;;;0.77;0.77;;;20.00;90.20;;;;;;5102517;28;20200;-75
2021/06/20 07:31:52;;;;;;;0.80;0.80;;;20.00;89.70;;;;;;5104333;28;20604;-75
2021/06/20 07:34:18;;;;;;;1.27;0.68;;;20.00;89.30;;;;;;5098286;28;20887;-74
2021/06/20 07:36:43;;;;;;;0.65;0.65;;;20.00;88.20;;;;;;5088616;28;20236;-74
2021/06/20 07:39:09;;;;;;;0.65;0.65;;;20.10;88.50;;;;;;5088453;28;20359;-75
2021/06/20 07:41:35;;;;;;;0.60;0.60;;;20.10;88.70;;;;;;5090623;28;20178;-74
2021/06/20 07:44:01;;;;;;;1.33;0.70;;;20.10;88.20;;;;;;5085476;28;20189;-74
2021/06/20 07:46:27;;;;;;;0.80;0.80;;;20.10;88.00;;;;;;5084660;28;20186;-75
2021/06/20 07:48:53;;;;;;;0.88;0.70;;;20.20;87.50;;;;;;5085767;28;20194;-74
2021/06/20 07:51:19;;;;;;;2.75;0.98;;;20.20;87.90;;;;;;5090708;28;20647;-74
2021/06/20 07:53:44;;;;;;;0.70;0.70;;;20.30;87.50;;;;;;5093914;28;20178;-75
2021/06/20 07:56:10;;;;;;;0.60;0.60;;;20.30;87.30;;;;;;5099712;28;20178;-75
2021/06/20 07:58:36;;;;;;;0.70;0.70;;;20.40;87.00;;;;;;5093254;28;20249;-74
2021/06/20 08:01:01;;;;;;;1.75;0.85;;;20.40;85.80;;;;;;5091413;28;20652;-73
2021/06/20 08:03:27;;;;;;;2.53;0.95;;;20.30;83.70;;;;;;5087510;28;20178;-73
2021/06/20 08:05:53;;;;;;;2.15;0.60;;;20.40;85.80;;;;;;5090401;28;20192;-73
2021/06/20 08:08:20;;;;;;;0.73;0.73;;;20.50;86.40;;;;;;5084837;28;20221;-73
2021/06/20 08:10:46;;;;;;;1.85;0.70;;;20.50;86.10;;;;;;5082534;28;20186;-73
2021/06/20 08:13:14;;;;;;;0.70;0.70;;;20.60;82.30;;;;;;5085673;28;20183;-74
2021/06/20 08:15:39;;;;;;;0.80;0.80;;;20.70;84.00;;;;;;5085666;28;20747;-74
2021/06/20 08:18:05;;;;;;;1.35;0.70;;;20.90;83.60;;;;;;5090590;28;20289;-73
2021/06/20 08:20:31;;;;;;;0.57;0.57;;;21.10;82.60;;;;;;5086844;28;20182;-75
2021/06/20 08:22:57;;;;;;;0.73;0.73;;;21.30;82.80;;;;;;5090172;28;20225;-75
2021/06/20 08:25:22;;;;;;;0.70;0.70;;;21.50;82.00;;;;;;5087124;28;20185;-74
2021/06/20 08:27:48;;;;;;;0.80;0.80;;;21.60;82.00;;;;;;5086533;28;20260;-74
2021/06/20 08:30:14;;;;;;;0.57;0.57;;;21.70;82.40;;;;;;5094840;28;20178;-73
2021/06/20 08:32:41;;;;;;;2.58;0.70;;;21.80;81.50;;;;;;5088346;28;20244;-72
2021/06/20 08:35:07;;;;;;;0.80;0.80;;;21.80;82.40;;;;;;5086029;28;20255;-71
2021/06/20 08:37:33;;;;;;;0.70;0.70;;;21.90;82.90;;;;;;5088893;28;20206;-71
2021/06/20 08:39:59;;;;;;;0.90;0.80;;;21.90;83.20;;;;;;5087767;28;20204;-71
2021/06/20 08:42:24;;;;;;;0.70;0.70;;;22.00;83.60;;;;;;5087459;28;20183;-72
2021/06/20 08:44:50;;;;;;;0.80;0.80;;;22.10;84.20;;;;;;5096488;28;20178;-72
2021/06/20 08:47:17;;;;;;;5.03;1.05;;;22.10;83.50;;;;;;5085598;28;20649;-73
2021/06/20 08:49:45;;;;;;;1.40;1.00;;;22.20;83.60;;;;;;5086348;28;20178;-72
2021/06/20 08:52:12;;;;;;;1.13;1.13;;;22.30;82.70;;;;;;5086567;28;20182;-72
2021/06/20 08:54:38;;;;;;;0.88;0.88;;;22.40;84.00;;;;;;5090479;28;20186;-72
2021/06/20 08:57:06;;;;;;;0.80;0.80;;;22.50;83.60;;;;;;5093127;28;20179;-72
2021/06/20 08:59:32;;;;;;;0.70;0.70;;;22.60;82.90;;;;;;5084259;28;20183;-72
2021/06/20 09:01:58;;;;;;;0.70;0.70;;;22.70;81.40;;;;;;5085466;28;20265;-71
2021/06/20 09:04:31;;;;;;;0.95;0.80;;;22.70;80.00;;;;;;5089476;28;20915;-73
2021/06/20 09:07:02;;;;;;;1.55;0.60;;;22.60;79.70;;;;;;5092827;28;20269;-72
2021/06/20 09:09:33;;;;;;;0.70;0.70;;;22.70;81.00;;;;;;5077547;28;20586;-70
2021/06/20 09:12:07;;;;;;;1.10;0.98;;;22.80;81.60;;;;;;5090575;28;20186;-71
2021/06/20 09:14:44;;;;;;;0.70;0.70;;;22.90;81.20;;;;;;5084583;28;20228;-72
2021/06/20 09:17:10;;;;;;;0.80;0.80;;;22.90;80.60;;;;;;5084699;28;20250;-71
2021/06/20 09:19:37;;;;;;;1.23;0.77;;;23.00;81.00;;;;;;5089039;28;20265;-72
2021/06/20 09:22:08;;;;;;;0.70;0.70;;;23.10;80.60;;;;;;5084735;28;20587;-71
2021/06/20 09:24:34;;;;;;;0.63;0.63;;;23.20;79.90;;;;;;5085310;28;20190;-73
2021/06/20 09:27:01;;;;;;;2.67;0.70;;;23.30;79.80;;;;;;5087491;28;20231;-73
2021/06/20 09:29:38;;;;;;;0.63;0.63;;;23.40;80.00;;;;;;5082143;28;20436;-71
2021/06/20 09:32:09;;;;;;;1.55;0.65;;;23.60;80.50;;;;;;5091761;28;20262;-72
2021/06/20 09:34:46;;;;;;;0.73;0.73;;;23.70;80.50;;;;;;5088682;28;20263;-72
2021/06/20 09:37:12;;;;;;;1.65;0.80;;;23.90;80.00;;;;;;5085622;28;20181;-72
2021/06/20 09:39:38;;;;;;;0.77;0.77;;;24.10;79.40;;;;;;5086076;28;20578;-72
2021/06/20 09:42:09;;;;;;;0.70;0.70;;;24.30;78.20;;;;;;5088491;28;20190;-71
2021/06/20 09:44:54;;;;;;;0.77;0.77;;;24.60;78.10;;;;;;5094896;28;20189;-71
2021/06/20 09:47:23;;;;;;;0.60;0.60;;;24.70;74.00;;;;;;5089618;28;20654;-72
2021/06/20 09:49:53;;;;;;;0.82;0.82;;;24.90;77.10;;;;;;5083584;28;20178;-72
2021/06/20 09:52:32;;;;;;;2.80;0.52;;;25.00;76.80;;;;;;5091159;28;20190;-72
2021/06/20 09:55:17;;;;;;;0.85;0.85;;;25.20;75.40;;;;;;5087134;28;20206;-72
2021/06/20 09:57:45;;;;;;;0.73;0.60;;;25.40;75.80;;;;;;5085592;28;20241;-73
2021/06/20 10:00:12;;;;;;;0.65;0.65;;;25.60;74.50;;;;;;5086866;28;20198;-74
2021/06/20 10:02:39;;;;;;;0.60;0.60;;;25.80;75.00;;;;;;5087611;28;20186;-72
2021/06/20 10:05:07;;;;;;;1.90;0.70;;;25.90;75.10;;;;;;5086124;28;20214;-73
2021/06/20 10:07:33;;;;;;;0.55;0.55;;;26.00;74.40;;;;;;5083199;28;20213;-75
2021/06/20 10:10:00;;;;;;;0.50;0.50;;;26.20;74.30;;;;;;5080479;28;20186;-73
2021/06/20 10:12:27;;;;;;;5.85;0.70;;;26.30;72.70;;;;;;5091157;28;20224;-72
2021/06/20 10:14:55;;;;;;;3.50;0.63;;;26.40;72.40;;;;;;5093719;28;20221;-72
2021/06/20 10:17:33;;;;;;;1.30;0.65;;;26.50;72.50;;;;;;5080606;28;20881;-77
2021/06/20 10:20:12;;;;;;;0.80;0.80;;;26.70;72.90;;;;;;5097203;28;20177;-76
2021/06/20 10:22:40;;;;;;;0.52;0.52;;;26.90;72.80;;;;;;5089561;28;20197;-76
2021/06/20 10:25:09;;;;;;;0.90;0.90;;;27.10;72.40;;;;;;5083004;28;20178;-73
2021/06/20 10:27:44;;;;;;;0.80;0.63;;;27.20;71.00;;;;;;5089273;28;20261;-76
2021/06/20 10:30:22;;;;;;;0.60;0.60;;;27.50;71.50;;;;;;5083865;28;20197;-74
2021/06/20 10:32:50;;;;;;;3.03;0.60;;;27.70;71.30;;;;;;5089758;28;20268;-78
2021/06/20 10:35:22;;;;;;;0.88;0.60;;;27.90;71.10;;;;;;5092854;28;20260;-74
2021/06/20 10:37:50;;;;;;;0.80;0.80;;;28.10;70.10;;;;;;5093140;28;20206;-75
2021/06/20 10:40:21;;;;;;;0.82;0.70;;;28.10;69.50;;;;;;5090643;28;20178;-73
2021/06/20 10:42:48;;;;;;;0.55;0.55;;;28.10;69.40;;;;;;5089347;28;20682;-74
2021/06/20 10:45:25;;;;;;;0.50;0.50;;;28.00;70.10;;;;;;5086630;28;20641;-74
2021/06/20 10:47:50;;;;;;;0.68;0.68;;;28.10;70.70;;;;;;5088091;28;20246;-74
2021/06/20 10:50:16;;;;;;;0.60;0.47;;;28.20;70.50;;;;;;5087278;28;20178;-75
2021/06/20 10:52:57;;;;;;;1.42;0.60;;;28.50;70.30;;;;;;5090662;28;20574;-74
2021/06/20 10:55:24;;;;;;;0.70;0.70;;;29.00;66.90;;;;;;5086488;28;20192;-75
2021/06/20 10:57:56;;;;;;;0.40;0.40;;;29.70;65.80;;;;;;5083961;28;20210;-76
2021/06/20 11:00:34;;;;;;;0.55;0.55;;;30.60;63.90;;;;;;5085347;28;20630;-73
2021/06/20 11:03:21;;;;;;;1.08;0.60;;;31.30;62.60;;;;;;5082880;28;20189;-74
2021/06/20 11:06:06;;;;;;;1.20;0.40;;;32.10;61.80;;;;;;5081719;28;20182;-74
2021/06/20 11:08:33;;;;;;;0.40;0.40;;;32.90;58.70;;;;;;5087091;28;20643;-74
2021/06/20 11:11:24;;;;;;;0.60;0.60;;;33.80;59.30;;;;;;5093435;28;20239;-74
2021/06/20 11:13:55;;;;;;;0.60;0.60;;;34.70;56.50;;;;;;5089366;28;20177;-75
2021/06/20 11:16:25;;;;;;;0.57;0.57;;;35.20;57.40;;;;;;5088832;28;20948;-75
2021/06/20 11:19:15;;;;;;;0.50;0.50;;;35.20;54.90;;;;;;5089754;28;20209;-75
2021/06/20 11:21:48;;;;;;;0.45;0.45;;;35.00;54.00;;;;;;5022956;28;20635;-73
2021/06/20 11:24:18;;;;;;;0.63;0.63;;;34.90;55.00;;;;;;5022191;28;20274;-72
2021/06/20 11:26:52;;;;;;;0.60;0.60;;;35.20;57.60;;;;;;5023831;28;20192;-71
2021/06/20 11:29:17;;;;;;;0.50;0.50;;;35.50;55.30;;;;;;5022504;28;20274;-72
2021/06/20 11:31:45;;;;;;;0.50;0.50;;;36.00;55.60;;;;;;5025542;28;20259;-71
2021/06/20 11:34:11;;;;;;;0.40;0.40;;;36.50;53.30;;;;;;5023348;28;20272;-74
2021/06/20 11:36:37;;;;;;;0.50;0.50;;;36.90;55.90;;;;;;5023524;28;20882;-75
2021/06/20 11:39:08;;;;;;;0.70;0.70;;;37.30;54.10;;;;;;5027256;28;20663;-76
2021/06/20 11:41:43;;;;;;;0.90;0.47;;;37.50;53.60;;;;;;5007664;28;20184;-75
2021/06/20 11:44:09;;;;;;;0.75;0.43;;;37.80;52.10;;;;;;5027450;28;20532;-73
2021/06/20 11:46:36;;;;;;;0.40;0.40;;;38.20;54.30;;;;;;5036608;28;20226;-76
2021/06/20 11:49:05;;;;;;;0.43;0.43;;;38.50;52.10;;;;;;5027093;28;20719;-73
2021/06/20 11:51:35;;;;;;;0.22;0.22;;;38.90;50.20;;;;;;5031544;28;20212;-73
2021/06/20 11:54:10;;;;;;;0.40;0.40;;;39.00;50.10;;;;;;5029036;28;20176;-74
2021/06/20 11:56:39;;;;;;;0.40;0.40;;;39.40;49.40;;;;;;5028284;28;20189;-75
2021/06/20 11:59:06;;;;;;;0.95;0.50;;;39.70;48.00;;;;;;5056533;28;20214;-76
2021/06/20 12:01:42;;;;;;;0.43;0.43;;;39.90;48.40;;;;;;5082485;28;20285;-75
2021/06/20 12:04:10;;;;;;;0.50;0.40;;;39.80;48.40;;;;;;5080758;28;20677;-72
2021/06/20 12:06:37;;;;;;;0.50;0.50;;;39.70;50.20;;;;;;5083185;28;20178;-71
2021/06/20 12:09:03;;;;;;;0.50;0.50;;;39.40;51.40;;;;;;5088785;28;20542;-73
2021/06/20 12:11:33;;;;;;;0.50;0.50;;;39.10;51.40;;;;;;5089248;28;20178;-73
2021/06/20 12:13:59;;;;;;;0.45;0.45;;;38.70;53.00;;;;;;5088852;28;20670;-76
2021/06/20 12:16:25;;;;;;;0.50;0.50;;;38.00;53.90;;;;;;5088298;28;20198;-73
2021/06/20 12:18:51;;;;;;;1.08;0.60;;;37.00;54.00;;;;;;5089263;28;20698;-74
2021/06/20 12:21:29;;;;;;;0.60;0.60;;;35.90;56.60;;;;;;5089907;28;20185;-74
2021/06/20 12:23:59;;;;;;;0.60;0.60;;;34.90;54.60;;;;;;5083566;28;20182;-74
2021/06/20 12:26:31;;;;;;;0.80;0.70;;;33.90;58.00;;;;;;5088829;28;20189;-73
2021/06/20 12:28:58;;;;;;;1.17;0.50;;;33.10;58.40;;;;;;5088677;28;20219;-73
2021/06/20 12:31:24;;;;;;;0.60;0.60;;;32.50;61.00;;;;;;5087493;28;20190;-75
2021/06/20 12:34:08;;;;;;;1.55;0.40;;;32.00;61.60;;;;;;5088126;28;20177;-74
2021/06/20 12:36:36;;;;;;;0.60;0.60;;;31.60;58.90;;;;;;5081849;28;21048;-74
2021/06/20 12:39:04;;;;;;;0.60;0.60;;;31.20;62.10;;;;;;5088858;28;20214;-76
2021/06/20 12:41:30;;;;;;;0.50;0.50;;;31.00;62.00;;;;;;5095572;28;20185;-75
2021/06/20 12:44:07;;;;;;;0.55;0.55;;;30.70;62.40;;;;;;5091397;28;20206;-74
2021/06/20 12:46:38;;;;;;;0.50;0.50;;;30.70;61.50;;;;;;5088504;28;20184;-74
2021/06/20 12:49:12;;;;;;;0.57;0.50;;;30.60;60.90;;;;;;5089348;28;20534;-72
2021/06/20 12:51:49;;;;;;;0.50;0.50;;;30.30;60.20;;;;;;5087688;28;20243;-73
2021/06/20 12:54:15;;;;;;;0.47;0.47;;;30.00;61.90;;;;;;5083704;28;20185;-73